createdAt,value
2018-04-20T00:04:00.788Z,72.25
2018-04-20T00:09:03.277Z,72.32
2018-04-20T00:14:05.759Z,72.70
2018-04-20T00:19:08.320Z,73.14
2018-04-20T00:24:10.901Z,73.33
2018-04-20T00:29:13.394Z,73.73
2018-04-20T00:34:15.852Z,73.53
2018-04-20T00:39:18.322Z,73.29
2018-04-20T00:44:20.860Z,73.23
2018-04-20T00:49:23.335Z,73.28
2018-04-20T00:54:25.806Z,73.64
2018-04-20T00:59:28.305Z,73.55
2018-04-20T01:04:30.773Z,73.83
2018-04-20T01:09:33.247Z,73.98
2018-04-20T01:14:36.558Z,73.92
2018-04-20T01:19:39.081Z,74.31
2018-04-20T01:24:41.606Z,74.45
2018-04-20T01:29:44.189Z,74.34
2018-04-20T01:34:46.698Z,74.49
2018-04-20T01:39:49.216Z,74.53
2018-04-20T01:44:51.677Z,74.82
2018-04-20T01:49:54.144Z,74.79
2018-04-20T01:54:56.609Z,74.96
2018-04-20T01:59:59.081Z,75.14
2018-04-20T02:05:01.550Z,75.08
2018-04-20T02:10:04.565Z,74.96
2018-04-20T02:15:07.098Z,74.97
2018-04-20T02:20:09.788Z,74.94
2018-04-20T02:25:12.343Z,75.08
2018-04-20T02:30:14.962Z,75.09
2018-04-20T02:35:17.459Z,75.20
2018-04-20T02:40:19.919Z,75.60
2018-04-20T02:45:22.376Z,75.50
2018-04-20T02:50:24.938Z,75.51
2018-04-20T02:55:27.445Z,75.58
2018-04-20T03:00:30.038Z,75.77
2018-04-20T03:05:32.510Z,75.67
2018-04-20T03:10:35.090Z,75.73
2018-04-20T03:15:38.465Z,75.90
2018-04-20T03:20:41.126Z,75.74
2018-04-20T03:25:43.656Z,75.91
2018-04-20T03:30:46.148Z,75.68
2018-04-20T03:35:48.626Z,75.83
2018-04-20T03:40:51.126Z,76.15
2018-04-20T03:45:53.612Z,75.93
2018-04-20T03:56:38.791Z,75.93
2018-04-20T04:01:44.065Z,76.09
2018-04-20T04:06:46.560Z,76.05
2018-04-20T04:11:52.566Z,75.87
2018-04-20T04:17:07.519Z,75.76
2018-04-20T04:22:25.458Z,75.20
2018-04-20T04:27:42.288Z,74.39
2018-04-20T04:32:48.025Z,73.50
2018-04-20T04:37:50.486Z,72.79
2018-04-20T04:42:52.961Z,72.13
2018-04-20T04:47:55.472Z,71.76
2018-04-20T04:52:57.939Z,70.46
2018-04-20T04:58:00.435Z,68.70
2018-04-20T05:03:02.930Z,67.56
2018-04-20T05:08:05.463Z,66.95
2018-04-20T05:13:16.841Z,59.30
2018-04-20T05:18:19.310Z,47.25
2018-04-20T05:23:21.809Z,41.42
2018-04-20T05:28:24.298Z,37.28
2018-04-20T05:33:26.757Z,35.93
2018-04-20T05:38:29.217Z,34.38
2018-04-20T05:43:31.911Z,34.83
2018-04-20T05:48:37.171Z,33.74
2018-04-20T05:53:39.679Z,31.10
2018-04-20T05:58:42.188Z,32.14
2018-04-20T06:03:44.668Z,30.33
2018-04-20T06:08:47.230Z,30.38
2018-04-20T06:13:49.710Z,29.99
2018-04-20T06:18:52.171Z,35.29
2018-04-20T06:23:55.044Z,42.30
2018-04-20T06:28:57.515Z,45.56
2018-04-20T06:34:00.134Z,48.57
2018-04-20T06:39:02.852Z,50.43
2018-04-20T06:44:05.522Z,51.33
2018-04-20T06:49:08.067Z,51.57
2018-04-20T06:54:10.578Z,52.51
2018-04-20T06:59:13.285Z,52.04
2018-04-20T07:04:15.783Z,51.74
2018-04-20T07:09:18.278Z,51.33
2018-04-20T07:14:20.775Z,52.21
2018-04-20T07:19:23.274Z,50.87
2018-04-20T07:24:25.756Z,51.32
2018-04-20T07:29:28.288Z,50.77
2018-04-20T07:34:30.760Z,50.15
2018-04-20T07:39:33.308Z,49.06
2018-04-20T07:44:35.829Z,49.90
2018-04-20T07:49:38.338Z,48.51
2018-04-20T07:54:40.859Z,48.87
2018-04-20T07:59:43.499Z,47.83
2018-04-20T08:04:45.978Z,47.89
2018-04-20T08:09:48.673Z,47.21
2018-04-20T08:14:51.161Z,46.82
2018-04-20T08:19:53.647Z,46.32
2018-04-20T08:24:56.141Z,46.44
2018-04-20T08:29:58.630Z,45.57
2018-04-20T08:35:01.085Z,45.63
2018-04-20T08:40:03.606Z,46.15
2018-04-20T08:45:06.675Z,44.75
2018-04-20T08:50:09.235Z,43.79
2018-04-20T08:55:11.769Z,43.99
2018-04-20T09:00:14.263Z,42.10
2018-04-20T09:05:16.826Z,40.50
2018-04-20T09:10:19.302Z,36.66
2018-04-20T09:15:21.788Z,33.16
2018-04-20T09:20:24.249Z,31.96
2018-04-20T09:25:26.733Z,29.68
2018-04-20T09:30:29.203Z,28.37
2018-04-20T09:35:31.666Z,29.01
2018-04-20T09:40:34.145Z,27.72
2018-04-20T09:45:36.751Z,28.88
2018-04-20T09:50:39.253Z,26.93
2018-04-20T09:55:42.248Z,27.80
2018-04-20T10:00:44.783Z,26.40
2018-04-20T10:05:47.304Z,27.82
2018-04-20T10:10:49.812Z,24.62
2018-04-20T10:15:52.289Z,25.86
2018-04-20T10:20:54.803Z,24.53
2018-04-20T10:25:57.308Z,25.04
2018-04-20T10:31:00.010Z,23.82
2018-04-20T10:36:02.509Z,23.11
2018-04-20T10:41:05.082Z,22.49
2018-04-20T10:46:07.622Z,24.42
2018-04-20T10:51:10.191Z,22.48
2018-04-20T10:56:12.762Z,23.41
2018-04-20T11:01:15.245Z,24.47
2018-04-20T11:06:17.766Z,23.59
2018-04-20T11:11:20.339Z,22.74
2018-04-20T11:16:22.766Z,23.72
2018-04-20T11:21:25.288Z,22.52
2018-04-20T11:26:27.753Z,23.88
2018-04-20T11:31:30.272Z,23.34
2018-04-20T11:36:32.938Z,23.47
2018-04-20T11:41:35.609Z,23.68
2018-04-20T11:46:38.729Z,23.16
2018-04-20T11:51:41.903Z,23.20
2018-04-20T11:56:44.560Z,24.30
2018-04-20T12:01:47.359Z,24.00
2018-04-20T12:06:49.913Z,23.18
2018-04-20T12:11:52.421Z,24.18
2018-04-20T12:16:54.906Z,25.85
2018-04-20T12:21:57.432Z,24.95
2018-04-20T12:26:59.942Z,25.04
2018-04-20T12:32:03.340Z,24.80
2018-04-20T12:37:05.879Z,25.22
2018-04-20T12:42:08.397Z,24.91
2018-04-20T12:47:11.306Z,24.46
2018-04-20T12:52:14.040Z,24.44
2018-04-20T12:57:16.552Z,25.57
2018-04-20T13:02:19.047Z,24.04
2018-04-20T13:07:21.532Z,23.89
2018-04-20T13:12:24.031Z,24.74
2018-04-20T13:17:26.507Z,23.93
2018-04-20T13:22:28.967Z,23.95
2018-04-20T13:27:31.439Z,23.72
2018-04-20T13:32:33.933Z,24.68
2018-04-20T13:37:36.443Z,24.64
2018-04-20T13:42:39.330Z,23.79
2018-04-20T13:47:42.183Z,23.18
2018-04-20T13:52:44.718Z,24.56
2018-04-20T13:57:47.203Z,24.47
2018-04-20T14:02:49.670Z,24.06
2018-04-20T14:07:52.164Z,25.25
2018-04-20T14:12:54.639Z,24.68
2018-04-20T14:17:58.947Z,23.41
2018-04-20T14:23:03.962Z,23.47
2018-04-20T14:28:06.453Z,23.78
2018-04-20T14:33:09.999Z,24.47
2018-04-20T14:38:12.696Z,24.64
2018-04-20T14:43:15.682Z,24.95
2018-04-20T14:48:19.266Z,24.75
2018-04-20T14:53:21.781Z,24.22
2018-04-20T14:58:24.250Z,24.55
2018-04-20T15:03:26.732Z,24.50
2018-04-20T15:08:29.221Z,24.23
2018-04-20T15:13:31.729Z,24.31
2018-04-20T15:18:34.254Z,25.53
2018-04-20T15:23:37.723Z,24.67
2018-04-20T15:28:40.317Z,24.50
2018-04-20T15:33:42.826Z,24.36
2018-04-20T15:38:45.339Z,26.39
2018-04-20T15:43:47.834Z,25.12
2018-04-20T15:48:50.335Z,25.85
2018-04-20T15:53:52.822Z,25.64
2018-04-20T15:58:55.343Z,25.21
2018-04-20T16:03:58.768Z,26.00
2018-04-20T16:09:01.224Z,26.22
2018-04-20T16:14:04.740Z,25.85
2018-04-20T16:19:07.472Z,26.42
2018-04-20T16:24:09.967Z,26.68
2018-04-20T16:29:12.573Z,27.02
2018-04-20T16:34:15.094Z,27.33
2018-04-20T16:39:17.769Z,27.55
2018-04-20T16:44:30.292Z,28.41
2018-04-20T16:49:32.963Z,29.33
2018-04-20T16:54:35.473Z,29.19
2018-04-20T16:59:38.045Z,30.44
2018-04-20T17:04:44.552Z,30.58
2018-04-20T17:09:47.119Z,32.31
2018-04-20T17:14:49.633Z,31.71
2018-04-20T17:19:52.103Z,32.76
2018-04-20T17:24:54.558Z,32.88
2018-04-20T17:29:57.336Z,34.31
2018-04-20T17:34:59.837Z,34.53
2018-04-20T17:40:02.311Z,35.15
2018-04-20T17:45:04.800Z,34.56
2018-04-20T17:50:07.342Z,35.72
2018-04-20T17:55:09.878Z,36.54
2018-04-20T18:00:12.470Z,37.13
2018-04-20T18:05:15.004Z,38.08
2018-04-20T18:10:17.523Z,39.23
2018-04-20T18:15:20.046Z,40.19
2018-04-20T18:20:22.621Z,41.08
2018-04-20T18:25:25.240Z,41.36
2018-04-20T18:30:32.908Z,42.26
2018-04-20T18:35:36.827Z,42.36
2018-04-20T18:40:40.166Z,43.69
2018-04-20T18:45:42.992Z,44.05
2018-04-20T18:50:45.546Z,45.28
2018-04-20T18:55:48.443Z,46.10
2018-04-20T19:00:57.584Z,46.59
2018-04-20T19:06:01.034Z,47.64
2018-04-20T19:11:04.313Z,48.21
2018-04-20T19:16:21.621Z,48.83
2018-04-20T19:21:50.788Z,49.12
2018-04-20T19:26:55.995Z,49.52
2018-04-20T19:31:58.690Z,50.58
2018-04-20T19:37:01.209Z,51.82
2018-04-20T19:42:06.230Z,51.13
2018-04-20T19:47:12.442Z,50.70
2018-04-20T19:52:27.741Z,51.20
2018-04-20T19:57:30.969Z,52.49
2018-04-20T20:02:49.900Z,53.14
2018-04-20T20:07:55.552Z,54.17
2018-04-20T20:12:58.071Z,54.49
2018-04-20T20:18:00.572Z,54.77
2018-04-20T20:23:05.985Z,55.22
2018-04-20T20:28:09.264Z,55.47
2018-04-20T20:33:11.979Z,56.15
2018-04-20T20:38:15.839Z,56.43
2018-04-20T20:43:19.871Z,56.87
2018-04-20T20:48:23.364Z,57.32
2018-04-20T20:53:25.830Z,57.41
2018-04-20T20:58:31.664Z,57.91
2018-04-20T21:03:35.877Z,58.20
2018-04-20T21:08:39.828Z,58.60
2018-04-20T21:13:42.312Z,59.23
2018-04-20T21:18:44.856Z,59.47
2018-04-20T21:23:47.614Z,59.64
2018-04-20T21:28:51.476Z,60.10
2018-04-20T21:33:59.379Z,60.30
2018-04-20T21:38:57.094Z,60.46
2018-04-20T21:43:59.573Z,61.20
2018-04-20T21:49:03.231Z,61.44
2018-04-20T21:54:06.782Z,61.57
2018-04-20T21:59:09.785Z,61.86
2018-04-20T22:04:12.673Z,62.02
2018-04-20T22:09:18.907Z,62.10
2018-04-20T22:14:21.907Z,62.33
2018-04-20T22:19:24.412Z,62.64
2018-04-20T22:24:26.913Z,62.00
2018-04-20T22:29:29.399Z,61.65
2018-04-20T22:34:31.886Z,62.06
2018-04-20T22:39:34.353Z,62.28
2018-04-20T22:44:37.552Z,62.68
2018-04-20T22:49:40.325Z,62.75
2018-04-20T22:54:43.082Z,63.03
2018-04-20T22:59:45.585Z,63.92
2018-04-20T23:04:48.166Z,64.40
2018-04-20T23:09:50.618Z,64.70
2018-04-20T23:14:53.100Z,64.68
2018-04-20T23:24:57.663Z,65.27
2018-04-20T23:30:00.241Z,65.33
2018-04-20T23:35:03.310Z,65.49
2018-04-20T23:40:06.961Z,65.47
2018-04-20T23:45:09.588Z,66.00
2018-04-20T23:50:12.173Z,66.06
2018-04-20T23:55:15.194Z,66.06
